PWSweather.com
Personal Weather Stations
Station Observations
DW1039
Liberty & Fairfield Townships, Hamilton, OH 45011

Liberty & Fairfield TownshipsHamilton, OH 45011

Lat: 39.3933, Lon: -84.477

Elevation: 780

Station Type: Davis Vantage Pro2 (Daytime Fan Aspirated)

http://www.lfweathercenter.com/

High Low Average
Temperature 26.8°F-2.9°C 13.1°F-10.5°C 18.7°F-7.4°C
Dew Point 20.6°F-6.3°C 7.8°F-13.4°C 12.0°F-11.1°C
Winds 12.0 mph 19.3 kmh Calm Calm 4.0 mph E6.4 kmh E
Wind Gusts 14.0 mph22.5 kmh 4.0 mph6.4 kmh 8.0 mph12.9 kmh
Humidity 83% 65% 75%
Pressure 30.29 in1025.7 mb 30.07 in1018.3 mb -
Precipitation 0.00 in0.0 mm - -
Hour Temp Dew Point Humidity Winds Wind Gusts Pressure Precip Precip Rate Daily Precip Total
12:00 AM 17.2°F-8.2°C 11.0°F-11.7°C 76% 5.0 mph N8.0 kmh N 11.0 mph17.7 kmh 30.22 in1023.4 mb 0.00 in0.0 mm 0.00 in/hr0.0 mm/hr 0.00 in0.0 mm
12:10 AM 16.6°F-8.6°C 10.7°F-11.8°C 77% 5.0 mph N8.0 kmh N 11.0 mph17.7 kmh 30.22 in1023.4 mb 0.00 in0.0 mm 0.00 in/hr0.0 mm/hr 0.00 in0.0 mm
12:21 AM 16.2°F-8.8°C 10.6°F-11.9°C 78% 8.0 mph N12.9 kmh N 12.0 mph19.3 kmh 30.22 in1023.4 mb 0.00 in0.0 mm 0.00 in/hr0.0 mm/hr 0.00 in0.0 mm
12:30 AM 16.0°F-8.9°C 10.4°F-12.0°C 78% 4.0 mph N6.4 kmh N 12.0 mph19.3 kmh 30.22 in1023.4 mb 0.00 in0.0 mm 0.00 in/hr0.0 mm/hr 0.00 in0.0 mm
12:40 AM 15.7°F-9.1°C 10.4°F-12.0°C 79% 5.0 mph NE8.0 kmh NE 11.0 mph17.7 kmh 30.21 in1023.0 mb 0.00 in0.0 mm 0.00 in/hr0.0 mm/hr 0.00 in0.0 mm
12:50 AM 15.4°F-9.2°C 10.1°F-12.2°C 79% 9.0 mph NNE14.5 kmh NNE 13.0 mph20.9 kmh 30.21 in1023.0 mb 0.00 in0.0 mm 0.00 in/hr0.0 mm/hr 0.00 in0.0 mm
01:00 AM 15.3°F-9.3°C 9.7°F-12.4°C 78% 5.0 mph N8.0 kmh N 10.0 mph16.1 kmh 30.22 in1023.4 mb 0.00 in0.0 mm 0.00 in/hr0.0 mm/hr 0.00 in0.0 mm
01:10 AM 15.0°F-9.4°C 9.7°F-12.4°C 79% 4.0 mph NNE6.4 kmh NNE 10.0 mph16.1 kmh 30.22 in1023.4 mb 0.00 in0.0 mm 0.00 in/hr0.0 mm/hr 0.00 in0.0 mm
01:20 AM 14.7°F-9.6°C 9.4°F-12.6°C 79% 3.0 mph NNE4.8 kmh NNE 5.0 mph8.0 kmh 30.22 in1023.4 mb 0.00 in0.0 mm 0.00 in/hr0.0 mm/hr 0.00 in0.0 mm
01:30 AM 14.6°F-9.7°C 9.3°F-12.6°C 79% 6.0 mph N9.7 kmh N 8.0 mph12.9 kmh 30.22 in1023.4 mb 0.00 in0.0 mm 0.00 in/hr0.0 mm/hr 0.00 in0.0 mm
01:40 AM 14.4°F-9.8°C 9.1°F-12.7°C 79% 1.0 mph NNE1.6 kmh NNE 10.0 mph16.1 kmh 30.22 in1023.4 mb 0.00 in0.0 mm 0.00 in/hr0.0 mm/hr 0.00 in0.0 mm
01:50 AM 14.4°F-9.8°C 9.4°F-12.6°C 80% 2.0 mph NNE3.2 kmh NNE 6.0 mph9.7 kmh 30.23 in1023.7 mb 0.00 in0.0 mm 0.00 in/hr0.0 mm/hr 0.00 in0.0 mm
02:00 AM 14.1°F-9.9°C 9.1°F-12.7°C 80% Calm Calm 5.0 mph8.0 kmh 30.23 in1023.7 mb 0.00 in0.0 mm 0.00 in/hr0.0 mm/hr 0.00 in0.0 mm
02:10 AM 14.1°F-9.9°C 9.4°F-12.6°C 81% 4.0 mph NE6.4 kmh NE 7.0 mph11.3 kmh 30.24 in1024.0 mb 0.00 in0.0 mm 0.00 in/hr0.0 mm/hr 0.00 in0.0 mm
02:20 AM 13.9°F-10.1°C 9.4°F-12.6°C 82% 5.0 mph N8.0 kmh N 11.0 mph17.7 kmh 30.24 in1024.0 mb 0.00 in0.0 mm 0.00 in/hr0.0 mm/hr 0.00 in0.0 mm
02:30 AM 13.9°F-10.1°C 9.2°F-12.7°C 81% 1.0 mph NE1.6 kmh NE 10.0 mph16.1 kmh 30.24 in1024.0 mb 0.00 in0.0 mm 0.00 in/hr0.0 mm/hr 0.00 in0.0 mm
02:40 AM 13.7°F-10.2°C 9.0°F-12.8°C 81% 3.0 mph NE4.8 kmh NE 10.0 mph16.1 kmh 30.24 in1024.0 mb 0.00 in0.0 mm 0.00 in/hr0.0 mm/hr 0.00 in0.0 mm
02:50 AM 13.6°F-10.2°C 9.1°F-12.7°C 82% Calm Calm 7.0 mph11.3 kmh 30.24 in1024.0 mb 0.00 in0.0 mm 0.00 in/hr0.0 mm/hr 0.00 in0.0 mm
03:00 AM 13.6°F-10.2°C 9.1°F-12.7°C 82% 1.0 mph NE1.6 kmh NE 8.0 mph12.9 kmh 30.24 in1024.0 mb 0.00 in0.0 mm 0.00 in/hr0.0 mm/hr 0.00 in0.0 mm
03:10 AM 13.5°F-10.3°C 9.0°F-12.8°C 82% 4.0 mph NNE6.4 kmh NNE 5.0 mph8.0 kmh 30.25 in1024.4 mb 0.00 in0.0 mm 0.00 in/hr0.0 mm/hr 0.00 in0.0 mm
03:20 AM 13.4°F-10.3°C 9.2°F-12.7°C 83% 4.0 mph NE6.4 kmh NE 5.0 mph8.0 kmh 30.25 in1024.4 mb 0.00 in0.0 mm 0.00 in/hr0.0 mm/hr 0.00 in0.0 mm
03:30 AM 13.4°F-10.3°C 9.2°F-12.7°C 83% 2.0 mph ENE3.2 kmh ENE 6.0 mph9.7 kmh 30.25 in1024.4 mb 0.00 in0.0 mm 0.00 in/hr0.0 mm/hr 0.00 in0.0 mm
03:40 AM 13.6°F-10.2°C 9.1°F-12.7°C 82% 7.0 mph NE11.3 kmh NE 9.0 mph14.5 kmh 30.25 in1024.4 mb 0.00 in0.0 mm 0.00 in/hr0.0 mm/hr 0.00 in0.0 mm
03:50 AM 13.5°F-10.3°C 9.0°F-12.8°C 82% 2.0 mph NE3.2 kmh NE 7.0 mph11.3 kmh 30.25 in1024.4 mb 0.00 in0.0 mm 0.00 in/hr0.0 mm/hr 0.00 in0.0 mm
04:00 AM 13.6°F-10.2°C 8.9°F-12.8°C 81% 5.0 mph E8.0 kmh E 11.0 mph17.7 kmh 30.24 in1024.0 mb 0.00 in0.0 mm 0.00 in/hr0.0 mm/hr 0.00 in0.0 mm
04:10 AM 13.4°F-10.3°C 8.7°F-12.9°C 81% 3.0 mph NNE4.8 kmh NNE 9.0 mph14.5 kmh 30.25 in1024.4 mb 0.00 in0.0 mm 0.00 in/hr0.0 mm/hr 0.00 in0.0 mm
04:20 AM 13.5°F-10.3°C 8.5°F-13.1°C 80% 4.0 mph ENE6.4 kmh ENE 14.0 mph22.5 kmh 30.25 in1024.4 mb 0.00 in0.0 mm 0.00 in/hr0.0 mm/hr 0.00 in0.0 mm
04:30 AM 13.4°F-10.3°C 8.1°F-13.3°C 79% 10.0 mph NE16.1 kmh NE 10.0 mph16.1 kmh 30.25 in1024.4 mb 0.00 in0.0 mm 0.00 in/hr0.0 mm/hr 0.00 in0.0 mm
04:40 AM 13.4°F-10.3°C 8.1°F-13.3°C 79% 2.0 mph ENE3.2 kmh ENE 9.0 mph14.5 kmh 30.25 in1024.4 mb 0.00 in0.0 mm 0.00 in/hr0.0 mm/hr 0.00 in0.0 mm
04:50 AM 13.2°F-10.4°C 7.9°F-13.4°C 79% 4.0 mph NE6.4 kmh NE 7.0 mph11.3 kmh 30.25 in1024.4 mb 0.00 in0.0 mm 0.00 in/hr0.0 mm/hr 0.00 in0.0 mm
05:00 AM 13.2°F-10.4°C 7.9°F-13.4°C 79% 3.0 mph NE4.8 kmh NE 8.0 mph12.9 kmh 30.26 in1024.7 mb 0.00 in0.0 mm 0.00 in/hr0.0 mm/hr 0.00 in0.0 mm
05:10 AM 13.1°F-10.5°C 7.8°F-13.4°C 79% 6.0 mph NE9.7 kmh NE 7.0 mph11.3 kmh 30.25 in1024.4 mb 0.00 in0.0 mm 0.00 in/hr0.0 mm/hr 0.00 in0.0 mm
05:20 AM 13.1°F-10.5°C 7.8°F-13.4°C 79% 6.0 mph E9.7 kmh E 9.0 mph14.5 kmh 30.26 in1024.7 mb 0.00 in0.0 mm 0.00 in/hr0.0 mm/hr 0.00 in0.0 mm
05:30 AM 13.2°F-10.4°C 7.9°F-13.4°C 79% 3.0 mph ENE4.8 kmh ENE 6.0 mph9.7 kmh 30.27 in1025.1 mb 0.00 in0.0 mm 0.00 in/hr0.0 mm/hr 0.00 in0.0 mm
05:41 AM 13.6°F-10.2°C 8.3°F-13.2°C 79% 2.0 mph ESE3.2 kmh ESE 6.0 mph9.7 kmh 30.27 in1025.1 mb 0.00 in0.0 mm 0.00 in/hr0.0 mm/hr 0.00 in0.0 mm
05:51 AM 13.8°F-10.1°C 8.2°F-13.2°C 78% 4.0 mph NE6.4 kmh NE 5.0 mph8.0 kmh 30.27 in1025.1 mb 0.00 in0.0 mm 0.00 in/hr0.0 mm/hr 0.00 in0.0 mm
06:10 AM 14.1°F-9.9°C 8.8°F-12.9°C 79% 6.0 mph E9.7 kmh E 10.0 mph16.1 kmh 30.26 in1024.7 mb 0.00 in0.0 mm 0.00 in/hr0.0 mm/hr 0.00 in0.0 mm
06:20 AM 14.1°F-9.9°C 8.5°F-13.1°C 78% 5.0 mph NE8.0 kmh NE 11.0 mph17.7 kmh 30.26 in1024.7 mb 0.00 in0.0 mm 0.00 in/hr0.0 mm/hr 0.00 in0.0 mm
06:30 AM 14.3°F-9.8°C 8.7°F-12.9°C 78% 10.0 mph E16.1 kmh E 10.0 mph16.1 kmh 30.26 in1024.7 mb 0.00 in0.0 mm 0.00 in/hr0.0 mm/hr 0.00 in0.0 mm
06:40 AM 14.3°F-9.8°C 8.4°F-13.1°C 77% 6.0 mph NE9.7 kmh NE 12.0 mph19.3 kmh 30.25 in1024.4 mb 0.00 in0.0 mm 0.00 in/hr0.0 mm/hr 0.00 in0.0 mm
06:50 AM 14.5°F-9.7°C 8.9°F-12.8°C 78% 2.0 mph E3.2 kmh E 6.0 mph9.7 kmh 30.27 in1025.1 mb 0.00 in0.0 mm 0.00 in/hr0.0 mm/hr 0.00 in0.0 mm
07:00 AM 14.6°F-9.7°C 8.7°F-12.9°C 77% 3.0 mph E4.8 kmh E 7.0 mph11.3 kmh 30.27 in1025.1 mb 0.00 in0.0 mm 0.00 in/hr0.0 mm/hr 0.00 in0.0 mm
07:10 AM 14.6°F-9.7°C 8.7°F-12.9°C 77% 6.0 mph E9.7 kmh E 10.0 mph16.1 kmh 30.27 in1025.1 mb 0.00 in0.0 mm 0.00 in/hr0.0 mm/hr 0.00 in0.0 mm
07:20 AM 14.6°F-9.7°C 8.4°F-13.1°C 76% 1.0 mph ENE1.6 kmh ENE 7.0 mph11.3 kmh 30.28 in1025.4 mb 0.00 in0.0 mm 0.00 in/hr0.0 mm/hr 0.00 in0.0 mm
07:30 AM 14.7°F-9.6°C 8.8°F-12.9°C 77% 7.0 mph E11.3 kmh E 7.0 mph11.3 kmh 30.28 in1025.4 mb 0.00 in0.0 mm 0.00 in/hr0.0 mm/hr 0.00 in0.0 mm
07:40 AM 14.7°F-9.6°C 9.1°F-12.7°C 78% 2.0 mph E3.2 kmh E 6.0 mph9.7 kmh 30.29 in1025.7 mb 0.00 in0.0 mm 0.00 in/hr0.0 mm/hr 0.00 in0.0 mm
07:50 AM 14.8°F-9.6°C 8.9°F-12.8°C 77% 5.0 mph ENE8.0 kmh ENE 7.0 mph11.3 kmh 30.28 in1025.4 mb 0.00 in0.0 mm 0.00 in/hr0.0 mm/hr 0.00 in0.0 mm
08:01 AM 14.8°F-9.6°C 8.9°F-12.8°C 77% 2.0 mph E3.2 kmh E 6.0 mph9.7 kmh 30.28 in1025.4 mb 0.00 in0.0 mm 0.00 in/hr0.0 mm/hr 0.00 in0.0 mm
08:10 AM 15.1°F-9.4°C 9.2°F-12.7°C 77% Calm Calm 6.0 mph9.7 kmh 30.28 in1025.4 mb 0.00 in0.0 mm 0.00 in/hr0.0 mm/hr 0.00 in0.0 mm
08:20 AM 15.3°F-9.3°C 9.4°F-12.6°C 77% 4.0 mph E6.4 kmh E 6.0 mph9.7 kmh 30.29 in1025.7 mb 0.00 in0.0 mm 0.00 in/hr0.0 mm/hr 0.00 in0.0 mm
08:30 AM 15.6°F-9.1°C 9.7°F-12.4°C 77% 3.0 mph E4.8 kmh E 6.0 mph9.7 kmh 30.29 in1025.7 mb 0.00 in0.0 mm 0.00 in/hr0.0 mm/hr 0.00 in0.0 mm
08:40 AM 15.8°F-9.0°C 9.6°F-12.4°C 76% 2.0 mph E3.2 kmh E 7.0 mph11.3 kmh 30.29 in1025.7 mb 0.00 in0.0 mm 0.00 in/hr0.0 mm/hr 0.00 in0.0 mm
08:50 AM 15.8°F-9.0°C 9.3°F-12.6°C 75% 4.0 mph E6.4 kmh E 7.0 mph11.3 kmh 30.29 in1025.7 mb 0.00 in0.0 mm 0.00 in/hr0.0 mm/hr 0.00 in0.0 mm
09:00 AM 16.1°F-8.8°C 9.9°F-12.3°C 76% 1.0 mph ESE1.6 kmh ESE 9.0 mph14.5 kmh 30.29 in1025.7 mb 0.00 in0.0 mm 0.00 in/hr0.0 mm/hr 0.00 in0.0 mm
09:10 AM 16.1°F-8.8°C 9.3°F-12.6°C 74% 9.0 mph E14.5 kmh E 9.0 mph14.5 kmh 30.29 in1025.7 mb 0.00 in0.0 mm 0.00 in/hr0.0 mm/hr 0.00 in0.0 mm
09:20 AM 16.2°F-8.8°C 9.4°F-12.6°C 74% 4.0 mph ESE6.4 kmh ESE 7.0 mph11.3 kmh 30.28 in1025.4 mb 0.00 in0.0 mm 0.00 in/hr0.0 mm/hr 0.00 in0.0 mm
09:30 AM 16.6°F-8.6°C 9.5°F-12.5°C 73% 4.0 mph ENE6.4 kmh ENE 9.0 mph14.5 kmh 30.28 in1025.4 mb 0.00 in0.0 mm 0.00 in/hr0.0 mm/hr 0.00 in0.0 mm
09:40 AM 16.7°F-8.5°C 9.6°F-12.4°C 73% 1.0 mph E1.6 kmh E 11.0 mph17.7 kmh 30.28 in1025.4 mb 0.00 in0.0 mm 0.00 in/hr0.0 mm/hr 0.00 in0.0 mm
09:50 AM 17.0°F-8.3°C 10.2°F-12.1°C 74% 3.0 mph E4.8 kmh E 13.0 mph20.9 kmh 30.28 in1025.4 mb 0.00 in0.0 mm 0.00 in/hr0.0 mm/hr 0.00 in0.0 mm
10:00 AM 17.4°F-8.1°C 10.2°F-12.1°C 73% 8.0 mph E12.9 kmh E 11.0 mph17.7 kmh 30.28 in1025.4 mb 0.00 in0.0 mm 0.00 in/hr0.0 mm/hr 0.00 in0.0 mm
10:10 AM 17.4°F-8.1°C 9.9°F-12.3°C 72% 3.0 mph ENE4.8 kmh ENE 7.0 mph11.3 kmh 30.28 in1025.4 mb 0.00 in0.0 mm 0.00 in/hr0.0 mm/hr 0.00 in0.0 mm
10:20 AM 17.8°F-7.9°C 10.3°F-12.1°C 72% 4.0 mph E6.4 kmh E 10.0 mph16.1 kmh 30.28 in1025.4 mb 0.00 in0.0 mm 0.00 in/hr0.0 mm/hr 0.00 in0.0 mm
10:30 AM 18.3°F-7.6°C 10.5°F-11.9°C 71% 3.0 mph ENE4.8 kmh ENE 11.0 mph17.7 kmh 30.27 in1025.1 mb 0.00 in0.0 mm 0.00 in/hr0.0 mm/hr 0.00 in0.0 mm
10:40 AM 18.5°F-7.5°C 10.4°F-12.0°C 70% 3.0 mph E4.8 kmh E 9.0 mph14.5 kmh 30.27 in1025.1 mb 0.00 in0.0 mm 0.00 in/hr0.0 mm/hr 0.00 in0.0 mm
10:51 AM 19.1°F-7.2°C 11.3°F-11.5°C 71% 2.0 mph E3.2 kmh E 7.0 mph11.3 kmh 30.26 in1024.7 mb 0.00 in0.0 mm 0.00 in/hr0.0 mm/hr 0.00 in0.0 mm
11:00 AM 19.6°F-6.9°C 10.8°F-11.8°C 68% 2.0 mph E3.2 kmh E 11.0 mph17.7 kmh 30.27 in1025.1 mb 0.00 in0.0 mm 0.00 in/hr0.0 mm/hr 0.00 in0.0 mm
11:10 AM 19.8°F-6.8°C 10.6°F-11.9°C 67% 5.0 mph E8.0 kmh E 6.0 mph9.7 kmh 30.26 in1024.7 mb 0.00 in0.0 mm 0.00 in/hr0.0 mm/hr 0.00 in0.0 mm
11:20 AM 20.0°F-6.7°C 11.2°F-11.6°C 68% 4.0 mph E6.4 kmh E 9.0 mph14.5 kmh 30.25 in1024.4 mb 0.00 in0.0 mm 0.00 in/hr0.0 mm/hr 0.00 in0.0 mm
11:30 AM 20.4°F-6.4°C 11.2°F-11.6°C 67% 5.0 mph ENE8.0 kmh ENE 12.0 mph19.3 kmh 30.23 in1023.7 mb 0.00 in0.0 mm 0.00 in/hr0.0 mm/hr 0.00 in0.0 mm
11:40 AM 20.6°F-6.3°C 11.4°F-11.4°C 67% 7.0 mph E11.3 kmh E 11.0 mph17.7 kmh 30.22 in1023.4 mb 0.00 in0.0 mm 0.00 in/hr0.0 mm/hr 0.00 in0.0 mm
11:50 AM 20.7°F-6.3°C 11.5°F-11.4°C 67% 12.0 mph ENE19.3 kmh ENE 14.0 mph22.5 kmh 30.22 in1023.4 mb 0.00 in0.0 mm 0.00 in/hr0.0 mm/hr 0.00 in0.0 mm
12:01 PM 21.2°F-6.0°C 12.0°F-11.1°C 67% 3.0 mph NE4.8 kmh NE 10.0 mph16.1 kmh 30.21 in1023.0 mb 0.00 in0.0 mm 0.00 in/hr0.0 mm/hr 0.00 in0.0 mm
12:10 PM 21.9°F-5.6°C 13.0°F-10.6°C 68% 3.0 mph ENE4.8 kmh ENE 12.0 mph19.3 kmh 30.21 in1023.0 mb 0.00 in0.0 mm 0.00 in/hr0.0 mm/hr 0.00 in0.0 mm
12:20 PM 22.1°F-5.5°C 12.8°F-10.7°C 67% Calm Calm 6.0 mph9.7 kmh 30.21 in1023.0 mb 0.00 in0.0 mm 0.00 in/hr0.0 mm/hr 0.00 in0.0 mm
12:30 PM 22.2°F-5.4°C 12.6°F-10.8°C 66% Calm Calm 6.0 mph9.7 kmh 30.21 in1023.0 mb 0.00 in0.0 mm 0.00 in/hr0.0 mm/hr 0.00 in0.0 mm
12:40 PM 22.4°F-5.3°C 12.4°F-10.9°C 65% 3.0 mph SE4.8 kmh SE 4.0 mph6.4 kmh 30.21 in1023.0 mb 0.00 in0.0 mm 0.00 in/hr0.0 mm/hr 0.00 in0.0 mm
12:50 PM 22.8°F-5.1°C 13.5°F-10.3°C 67% Calm Calm 5.0 mph8.0 kmh 30.20 in1022.7 mb 0.00 in0.0 mm 0.00 in/hr0.0 mm/hr 0.00 in0.0 mm
01:00 PM 22.9°F-5.1°C 13.9°F-10.1°C 68% 3.0 mph E4.8 kmh E 5.0 mph8.0 kmh 30.19 in1022.4 mb 0.00 in0.0 mm 0.00 in/hr0.0 mm/hr 0.00 in0.0 mm
01:10 PM 23.4°F-4.8°C 14.4°F-9.8°C 68% 9.0 mph E14.5 kmh E 11.0 mph17.7 kmh 30.17 in1021.7 mb 0.00 in0.0 mm 0.00 in/hr0.0 mm/hr 0.00 in0.0 mm
01:20 PM 23.2°F-4.9°C 13.9°F-10.1°C 67% 7.0 mph NE11.3 kmh NE 12.0 mph19.3 kmh 30.17 in1021.7 mb 0.00 in0.0 mm 0.00 in/hr0.0 mm/hr 0.00 in0.0 mm
01:30 PM 23.4°F-4.8°C 13.7°F-10.2°C 66% Calm Calm 10.0 mph16.1 kmh 30.18 in1022.0 mb 0.00 in0.0 mm 0.00 in/hr0.0 mm/hr 0.00 in0.0 mm
01:50 PM 24.2°F-4.3°C 14.8°F-9.6°C 67% 3.0 mph E4.8 kmh E 5.0 mph8.0 kmh 30.18 in1022.0 mb 0.00 in0.0 mm 0.00 in/hr0.0 mm/hr 0.00 in0.0 mm
02:00 PM 24.5°F-4.2°C 15.5°F-9.2°C 68% 3.0 mph E4.8 kmh E 6.0 mph9.7 kmh 30.17 in1021.7 mb 0.00 in0.0 mm 0.00 in/hr0.0 mm/hr 0.00 in0.0 mm
02:10 PM 24.4°F-4.2°C 15.4°F-9.2°C 68% 5.0 mph ENE8.0 kmh ENE 5.0 mph8.0 kmh 30.16 in1021.3 mb 0.00 in0.0 mm 0.00 in/hr0.0 mm/hr 0.00 in0.0 mm
02:20 PM 24.4°F-4.2°C 15.4°F-9.2°C 68% 6.0 mph E9.7 kmh E 9.0 mph14.5 kmh 30.15 in1021.0 mb 0.00 in0.0 mm 0.00 in/hr0.0 mm/hr 0.00 in0.0 mm
02:30 PM 24.4°F-4.2°C 15.7°F-9.1°C 69% 1.0 mph E1.6 kmh E 9.0 mph14.5 kmh 30.15 in1021.0 mb 0.00 in0.0 mm 0.00 in/hr0.0 mm/hr 0.00 in0.0 mm
02:40 PM 24.3°F-4.3°C 15.6°F-9.1°C 69% 2.0 mph E3.2 kmh E 10.0 mph16.1 kmh 30.14 in1020.7 mb 0.00 in0.0 mm 0.00 in/hr0.0 mm/hr 0.00 in0.0 mm
02:50 PM 24.4°F-4.2°C 15.7°F-9.1°C 69% 12.0 mph ENE19.3 kmh ENE 12.0 mph19.3 kmh 30.12 in1020.0 mb 0.00 in0.0 mm 0.00 in/hr0.0 mm/hr 0.00 in0.0 mm
03:00 PM 24.6°F-4.1°C 16.2°F-8.8°C 70% 2.0 mph E3.2 kmh E 10.0 mph16.1 kmh 30.12 in1020.0 mb 0.00 in0.0 mm 0.00 in/hr0.0 mm/hr 0.00 in0.0 mm
03:10 PM 24.8°F-4.0°C 16.4°F-8.7°C 70% 3.0 mph E4.8 kmh E 10.0 mph16.1 kmh 30.11 in1019.6 mb 0.00 in0.0 mm 0.00 in/hr0.0 mm/hr 0.00 in0.0 mm
03:20 PM 25.0°F-3.9°C 16.6°F-8.6°C 70% 2.0 mph E3.2 kmh E 7.0 mph11.3 kmh 30.11 in1019.6 mb 0.00 in0.0 mm 0.00 in/hr0.0 mm/hr 0.00 in0.0 mm
03:30 PM 25.3°F-3.7°C 17.2°F-8.2°C 71% Calm Calm 10.0 mph16.1 kmh 30.11 in1019.6 mb 0.00 in0.0 mm 0.00 in/hr0.0 mm/hr 0.00 in0.0 mm
03:40 PM 25.5°F-3.6°C 17.4°F-8.1°C 71% 4.0 mph E6.4 kmh E 9.0 mph14.5 kmh 30.11 in1019.6 mb 0.00 in0.0 mm 0.00 in/hr0.0 mm/hr 0.00 in0.0 mm
03:50 PM 25.7°F-3.5°C 17.9°F-7.8°C 72% 3.0 mph ENE4.8 kmh ENE 4.0 mph6.4 kmh 30.11 in1019.6 mb 0.00 in0.0 mm 0.00 in/hr0.0 mm/hr 0.00 in0.0 mm
04:01 PM 26.2°F-3.2°C 18.4°F-7.6°C 72% 3.0 mph E4.8 kmh E 9.0 mph14.5 kmh 30.10 in1019.3 mb 0.00 in0.0 mm 0.00 in/hr0.0 mm/hr 0.00 in0.0 mm
04:10 PM 26.1°F-3.3°C 18.3°F-7.6°C 72% 2.0 mph ENE3.2 kmh ENE 11.0 mph17.7 kmh 30.10 in1019.3 mb 0.00 in0.0 mm 0.00 in/hr0.0 mm/hr 0.00 in0.0 mm
04:20 PM 26.5°F-3.1°C 19.0°F-7.2°C 73% 4.0 mph E6.4 kmh E 7.0 mph11.3 kmh 30.10 in1019.3 mb 0.00 in0.0 mm 0.00 in/hr0.0 mm/hr 0.00 in0.0 mm
04:30 PM 26.4°F-3.1°C 18.9°F-7.3°C 73% 5.0 mph ENE8.0 kmh ENE 10.0 mph16.1 kmh 30.08 in1018.6 mb 0.00 in0.0 mm 0.00 in/hr0.0 mm/hr 0.00 in0.0 mm
04:40 PM 26.6°F-3.0°C 19.1°F-7.2°C 73% 4.0 mph ENE6.4 kmh ENE 9.0 mph14.5 kmh 30.08 in1018.6 mb 0.00 in0.0 mm 0.00 in/hr0.0 mm/hr 0.00 in0.0 mm
04:50 PM 26.7°F-2.9°C 19.5°F-6.9°C 74% 4.0 mph E6.4 kmh E 6.0 mph9.7 kmh 30.08 in1018.6 mb 0.00 in0.0 mm 0.00 in/hr0.0 mm/hr 0.00 in0.0 mm
05:00 PM 26.5°F-3.1°C 19.7°F-6.8°C 75% 4.0 mph ESE6.4 kmh ESE 7.0 mph11.3 kmh 30.09 in1019.0 mb 0.00 in0.0 mm 0.00 in/hr0.0 mm/hr 0.00 in0.0 mm
05:10 PM 26.4°F-3.1°C 19.9°F-6.7°C 76% 7.0 mph E11.3 kmh E 9.0 mph14.5 kmh 30.08 in1018.6 mb 0.00 in0.0 mm 0.00 in/hr0.0 mm/hr 0.00 in0.0 mm
05:20 PM 26.4°F-3.1°C 19.9°F-6.7°C 76% 3.0 mph E4.8 kmh E 6.0 mph9.7 kmh 30.08 in1018.6 mb 0.00 in0.0 mm 0.00 in/hr0.0 mm/hr 0.00 in0.0 mm
05:30 PM 26.5°F-3.1°C 20.0°F-6.7°C 76% 2.0 mph E3.2 kmh E 7.0 mph11.3 kmh 30.08 in1018.6 mb 0.00 in0.0 mm 0.00 in/hr0.0 mm/hr 0.00 in0.0 mm
05:40 PM 26.5°F-3.1°C 20.0°F-6.7°C 76% 1.0 mph ENE1.6 kmh ENE 6.0 mph9.7 kmh 30.08 in1018.6 mb 0.00 in0.0 mm 0.00 in/hr0.0 mm/hr 0.00 in0.0 mm
05:50 PM 26.7°F-2.9°C 20.5°F-6.4°C 77% 5.0 mph ENE8.0 kmh ENE 6.0 mph9.7 kmh 30.07 in1018.3 mb 0.00 in0.0 mm 0.00 in/hr0.0 mm/hr 0.00 in0.0 mm
06:00 PM 26.7°F-2.9°C 20.2°F-6.6°C 76% 2.0 mph E3.2 kmh E 6.0 mph9.7 kmh 30.08 in1018.6 mb 0.00 in0.0 mm 0.00 in/hr0.0 mm/hr 0.00 in0.0 mm
06:10 PM 26.8°F-2.9°C 20.6°F-6.3°C 77% 3.0 mph ENE4.8 kmh ENE 4.0 mph6.4 kmh 30.08 in1018.6 mb 0.00 in0.0 mm 0.00 in/hr0.0 mm/hr 0.00 in0.0 mm
06:20 PM 26.7°F-2.9°C 20.2°F-6.6°C 76% 1.0 mph NE1.6 kmh NE 9.0 mph14.5 kmh 30.07 in1018.3 mb 0.00 in0.0 mm 0.00 in/hr0.0 mm/hr 0.00 in0.0 mm
06:30 PM 26.8°F-2.9°C 20.6°F-6.3°C 77% 2.0 mph E3.2 kmh E 6.0 mph9.7 kmh 30.08 in1018.6 mb 0.00 in0.0 mm 0.00 in/hr0.0 mm/hr 0.00 in0.0 mm
06:40 PM 26.7°F-2.9°C 20.2°F-6.6°C 76% 4.0 mph E6.4 kmh E 9.0 mph14.5 kmh 30.07 in1018.3 mb 0.00 in0.0 mm 0.00 in/hr0.0 mm/hr 0.00 in0.0 mm
06:50 PM 26.9°F-2.8°C 21.0°F-6.1°C 78% 3.0 mph ENE4.8 kmh ENE 10.0 mph16.1 kmh 30.06 in1017.9 mb 0.00 in0.0 mm 0.00 in/hr0.0 mm/hr 0.00 in0.0 mm
07:00 PM 26.8°F-2.9°C 20.6°F-6.3°C 77% 4.0 mph E6.4 kmh E 11.0 mph17.7 kmh 30.06 in1017.9 mb 0.00 in0.0 mm 0.00 in/hr0.0 mm/hr 0.00 in0.0 mm
07:10 PM 26.8°F-2.9°C 20.6°F-6.3°C 77% 1.0 mph ENE1.6 kmh ENE 7.0 mph11.3 kmh 30.06 in1017.9 mb 0.00 in0.0 mm 0.00 in/hr0.0 mm/hr 0.00 in0.0 mm
07:20 PM 26.9°F-2.8°C 21.0°F-6.1°C 78% Calm Calm 8.0 mph12.9 kmh 30.06 in1017.9 mb 0.00 in0.0 mm 0.00 in/hr0.0 mm/hr 0.00 in0.0 mm
07:30 PM 26.9°F-2.8°C 20.7°F-6.3°C 77% 4.0 mph NE6.4 kmh NE 10.0 mph16.1 kmh 30.05 in1017.6 mb 0.00 in0.0 mm 0.00 in/hr0.0 mm/hr 0.00 in0.0 mm
07:40 PM 26.9°F-2.8°C 21.3°F-5.9°C 79% Calm Calm 7.0 mph11.3 kmh 30.05 in1017.6 mb 0.00 in0.0 mm 0.00 in/hr0.0 mm/hr 0.00 in0.0 mm
07:50 PM 26.7°F-2.9°C 21.7°F-5.7°C 81% 4.0 mph NE6.4 kmh NE 7.0 mph11.3 kmh 30.04 in1017.3 mb 0.00 in0.0 mm 0.00 in/hr0.0 mm/hr 0.00 in0.0 mm
08:01 PM 26.5°F-3.1°C 22.1°F-5.5°C 83% 6.0 mph ENE9.7 kmh ENE 9.0 mph14.5 kmh 30.03 in1016.9 mb 0.00 in0.0 mm 0.00 in/hr0.0 mm/hr 0.00 in0.0 mm
08:10 PM 26.5°F-3.1°C 22.3°F-5.4°C 84% 4.0 mph ENE6.4 kmh ENE 7.0 mph11.3 kmh 30.02 in1016.6 mb 0.00 in0.0 mm 0.00 in/hr0.0 mm/hr 0.00 in0.0 mm
08:20 PM 26.4°F-3.1°C 22.2°F-5.4°C 84% 6.0 mph ENE9.7 kmh ENE 11.0 mph17.7 kmh 30.03 in1016.9 mb 0.00 in0.0 mm 0.00 in/hr0.0 mm/hr 0.00 in0.0 mm
08:30 PM 26.5°F-3.1°C 22.6°F-5.2°C 85% 6.0 mph E9.7 kmh E 9.0 mph14.5 kmh 30.03 in1016.9 mb 0.00 in0.0 mm 0.00 in/hr0.0 mm/hr 0.00 in0.0 mm
08:40 PM 26.3°F-3.2°C 22.1°F-5.5°C 84% 9.0 mph NE14.5 kmh NE 9.0 mph14.5 kmh 30.03 in1016.9 mb 0.00 in0.0 mm 0.00 in/hr0.0 mm/hr 0.00 in0.0 mm
08:50 PM 26.4°F-3.1°C 22.5°F-5.3°C 85% 6.0 mph NE9.7 kmh NE 10.0 mph16.1 kmh 30.03 in1016.9 mb 0.00 in0.0 mm 0.00 in/hr0.0 mm/hr 0.00 in0.0 mm
09:00 PM 26.4°F-3.1°C 23.1°F-4.9°C 87% 11.0 mph NE17.7 kmh NE 13.0 mph20.9 kmh 30.02 in1016.6 mb 0.00 in0.0 mm 0.00 in/hr0.0 mm/hr 0.00 in0.0 mm
09:10 PM 26.2°F-3.2°C 23.1°F-4.9°C 88% 4.0 mph NNE6.4 kmh NNE 10.0 mph16.1 kmh 30.01 in1016.3 mb 0.00 in0.0 mm 0.00 in/hr0.0 mm/hr 0.00 in0.0 mm
09:20 PM 27.0°F-2.8°C 24.2°F-4.3°C 89% 4.0 mph NE6.4 kmh NE 13.0 mph20.9 kmh 29.99 in1015.6 mb 0.01 in0.3 mm 0.06 in/hr1.5 mm/hr 0.01 in0.3 mm
09:30 PM 26.4°F-3.1°C 23.6°F-4.7°C 89% 10.0 mph NE16.1 kmh NE 12.0 mph19.3 kmh 29.98 in1015.2 mb 0.01 in0.3 mm 0.00 in/hr0.0 mm/hr 0.01 in0.3 mm
09:40 PM 26.1°F-3.3°C 23.3°F-4.8°C 89% 6.0 mph ENE9.7 kmh ENE 11.0 mph17.7 kmh 29.99 in1015.6 mb 0.01 in0.3 mm 0.00 in/hr0.0 mm/hr 0.01 in0.3 mm
09:50 PM 26.1°F-3.3°C 23.3°F-4.8°C 89% 3.0 mph NE4.8 kmh NE 10.0 mph16.1 kmh 30.00 in1015.9 mb 0.01 in0.3 mm 0.00 in/hr0.0 mm/hr 0.01 in0.3 mm
10:01 PM 25.9°F-3.4°C 23.1°F-4.9°C 89% 5.0 mph NE8.0 kmh NE 14.0 mph22.5 kmh 29.99 in1015.6 mb 0.01 in0.3 mm 0.00 in/hr0.0 mm/hr 0.01 in0.3 mm
10:10 PM 26.0°F-3.3°C 23.2°F-4.9°C 89% 4.0 mph NE6.4 kmh NE 8.0 mph12.9 kmh 30.00 in1015.9 mb 0.01 in0.3 mm 0.00 in/hr0.0 mm/hr 0.01 in0.3 mm
10:20 PM 26.0°F-3.3°C 23.5°F-4.7°C 90% 3.0 mph NE4.8 kmh NE 12.0 mph19.3 kmh 29.99 in1015.6 mb 0.00 in0.0 mm 0.00 in/hr0.0 mm/hr 0.01 in0.3 mm
10:30 PM 26.0°F-3.3°C 23.5°F-4.7°C 90% 2.0 mph NE3.2 kmh NE 11.0 mph17.7 kmh 29.99 in1015.6 mb 0.00 in0.0 mm 0.00 in/hr0.0 mm/hr 0.01 in0.3 mm
10:40 PM 26.2°F-3.2°C 23.7°F-4.6°C 90% 7.0 mph NE11.3 kmh NE 9.0 mph14.5 kmh 29.99 in1015.6 mb 0.00 in0.0 mm 0.00 in/hr0.0 mm/hr 0.01 in0.3 mm
10:50 PM 26.2°F-3.2°C 23.7°F-4.6°C 90% 7.0 mph NNE11.3 kmh NNE 15.0 mph24.1 kmh 29.98 in1015.2 mb 0.00 in0.0 mm 0.00 in/hr0.0 mm/hr 0.01 in0.3 mm
11:00 PM 26.2°F-3.2°C 23.7°F-4.6°C 90% 5.0 mph NE8.0 kmh NE 15.0 mph24.1 kmh 29.98 in1015.2 mb 0.01 in0.3 mm 0.01 in/hr0.3 mm/hr 0.02 in0.5 mm
11:10 PM 26.5°F-3.1°C 24.2°F-4.3°C 91% 8.0 mph NE12.9 kmh NE 13.0 mph20.9 kmh 29.97 in1014.9 mb 0.02 in0.5 mm 0.06 in/hr1.5 mm/hr 0.03 in0.8 mm
11:20 PM 27.0°F-2.8°C 25.0°F-3.9°C 92% 11.0 mph ENE17.7 kmh ENE 12.0 mph19.3 kmh 29.97 in1014.9 mb 0.04 in1.0 mm 0.12 in/hr3.0 mm/hr 0.05 in1.3 mm
11:30 PM 26.7°F-2.9°C 24.7°F-4.1°C 92% 7.0 mph NE11.3 kmh NE 16.0 mph25.7 kmh 29.97 in1014.9 mb 0.05 in1.3 mm 0.06 in/hr1.5 mm/hr 0.06 in1.5 mm
11:40 PM 27.2°F-2.7°C 25.2°F-3.8°C 92% 6.0 mph NNE9.7 kmh NNE 12.0 mph19.3 kmh 29.96 in1014.6 mb 0.07 in1.8 mm 0.12 in/hr3.0 mm/hr 0.08 in2.0 mm
11:50 PM 26.9°F-2.8°C 24.9°F-3.9°C 92% 8.0 mph ENE12.9 kmh ENE 16.0 mph25.7 kmh 29.96 in1014.6 mb 0.10 in2.5 mm 0.18 in/hr4.6 mm/hr 0.11 in2.8 mm